AirNav   TITAN Aviation Fuels
 
 1013 users online  

WS96 Hughes Airport
Monroe, Wisconsin, USA

GOING TO MONROE?


FAA INFORMATION EFFECTIVE 09 SEPTEMBER 2021

Location

FAA Identifier: WS96
Lat/Long: 42-37-15.0200N 089-46-02.4400W
42-37.250333N 089-46.040667W
42.6208389,-89.7673444
(estimated)
Elevation: 1010 ft. / 308 m (estimated)
Variation: 00W (1995)
From city: 6 miles NW of MONROE, WI
Time zone: UTC -5 (UTC -6 during Standard Time)
Zip code: 53566

Airport Operations

Airport use: Private use. Permission required prior to landing
Activation date: 05/1999
Control tower: no
ARTCC: CHICAGO CENTER
FSS: GREEN BAY FLIGHT SERVICE STATION
Attendance: UNATNDD
Segmented circle: no

Airport Communications

WX AWOS-3 at EFT (8 nm E): 118.375 (608-328-8359)

Nearby radio navigation aids

VOR radial/distance  VOR name  Freq  Var
JVLr274/29.5JANESVILLE VOR/DME114.3003E
RFDr312/34.6ROCKFORD VOR/DME110.8001E
MSNr208/36.6MADISON VORTAC108.6003E

Airport Services

Runway Information

Runway 18/36

Dimensions: 1600 x 75 ft. / 488 x 23 m
Surface: turf
RUNWAY 18  RUNWAY 36
Traffic pattern: leftleft
Obstructions: treestrees

Airport Ownership and Management from official FAA records

Ownership: Privately-owned
Owner: TODD & TERRI HUGHES
1710 16 TH ST
MONROE, WI 53566
Phone 608-325-7607
Manager: TERRI HUGHES
1710 16 TH ST
MONROE, WI 53566
Phone 608-325-7607

Airport Operational Statistics

Aircraft based on the field: 1
Single engine airplanes: 1
    

Additional Remarks

FOR CD CTC CHICAGO ARTCC AT 630-906-8921.

Instrument Procedures

There are no published instrument procedures at WS96.

Some nearby airports with instrument procedures:

KEFT - Monroe Municipal Airport (8 nm E)
KFEP - Albertus Airport (24 nm S)
KMRJ - Iowa County Airport (26 nm NW)
KPVB - Platteville Municipal Airport (30 nm W)
C29 - Middleton Municipal Airport - Morey Field (31 nm N)
 
Loc | Ops | Rwys | IFR | FBO | Links
Com | Nav | Svcs | Stats | Notes
Area around WS96 (Hughes Airport)
 
Road maps at: MapQuest Bing Google
 
Aerial photo
No photo
 
Sectional chart

 
Airport distance calculator
Flying to Hughes Airport? Find the distance to fly.

From to WS96

Sunrise and sunset
Times for 23-Sep-2021
 Local
(UTC-5)
 Zulu
(UTC)
Morning civil twilight06:2011:20
Sunrise06:4811:48
Sunset18:5423:54
Evening civil twilight19:2300:23

Current date and time
Zulu (UTC)  24-Sep-2021 02:56:37
Local (UTC-5)  23-Sep-2021 21:56:37
 
METAR
KEFT 
8nm E 
240235Z AUTO 28010KT 10SM CLR 14/07 A2995 RMK AO2 T01400066
TAF
KJVL 
33nm E 
232100Z 2321/2418 33015G23KT P6SM SCT150 FM232300 32008KT P6SM SKC FM240200 VRB03KT P6SM SKC FM241400 20007KT P6SM FEW250 FM241600 20012G22KT P6SM FEW250
KMSN 
36nm NE 
232100Z 2321/2418 32011G18KT P6SM FEW150 FM240000 VRB04KT P6SM SKC FM241400 20006KT P6SM FEW250 FM241600 20012G21KT P6SM FEW250
KRFD 
39nm SE 
232059Z 2321/2418 34014G22KT P6SM FEW150 FM232300 32007KT P6SM SKC FM241500 21010G17KT P6SM SCT250
NOTAMs
Click for the latest NOTAMs
NOTAMs are issued by the DoD/FAA and will open in a separate window not controlled by AirNav.

 

 
 

Would you like to see your business listed on this page?

 If your business provides an interesting product or service to pilots, flight crews, aircraft, or users of the Hughes Airport, you should consider listing it here.  To start the listing process, click on the button below
 
Add a business
 

Other Pages about Hughes Airport

Update a link
 
Copyright © AirNav, LLC. All rights reserved. Privacy Policy  Contact